sensor_id;sensor_type;location;lat;lon;timestamp;P1;durP1;ratioP1;P2;durP2;ratioP2
18159;SDS011;9205;52.032;4.314;2023-07-20T00:01:21;2.30;;;1.97;;
18159;SDS011;9205;52.032;4.314;2023-07-20T00:03:49;2.30;;;2.00;;
18159;SDS011;9205;52.032;4.314;2023-07-20T00:06:20;1.87;;;1.67;;
18159;SDS011;9205;52.032;4.314;2023-07-20T00:08:47;4.63;;;1.73;;
18159;SDS011;9205;52.032;4.314;2023-07-20T00:11:15;3.10;;;1.70;;
18159;SDS011;9205;52.032;4.314;2023-07-20T00:13:43;2.10;;;1.47;;
18159;SDS011;9205;52.032;4.314;2023-07-20T00:16:11;2.30;;;1.50;;
18159;SDS011;9205;52.032;4.314;2023-07-20T00:18:38;2.33;;;1.40;;
18159;SDS011;9205;52.032;4.314;2023-07-20T00:21:05;2.93;;;1.20;;
18159;SDS011;9205;52.032;4.314;2023-07-20T00:23:32;2.60;;;1.30;;
18159;SDS011;9205;52.032;4.314;2023-07-20T00:26:00;1.43;;;1.23;;
18159;SDS011;9205;52.032;4.314;2023-07-20T00:28:27;2.73;;;1.30;;
18159;SDS011;9205;52.032;4.314;2023-07-20T00:30:56;1.47;;;1.00;;
18159;SDS011;9205;52.032;4.314;2023-07-20T00:33:25;1.87;;;0.93;;
18159;SDS011;9205;52.032;4.314;2023-07-20T00:35:53;1.03;;;0.80;;
18159;SDS011;9205;52.032;4.314;2023-07-20T00:38:20;1.07;;;0.97;;
18159;SDS011;9205;52.032;4.314;2023-07-20T00:40:47;1.57;;;1.00;;
18159;SDS011;9205;52.032;4.314;2023-07-20T00:43:16;0.90;;;0.70;;
18159;SDS011;9205;52.032;4.314;2023-07-20T00:45:44;1.33;;;0.80;;
18159;SDS011;9205;52.032;4.314;2023-07-20T00:48:13;0.80;;;0.80;;
18159;SDS011;9205;52.032;4.314;2023-07-20T00:50:42;0.97;;;0.73;;
18159;SDS011;9205;52.032;4.314;2023-07-20T00:53:10;1.07;;;0.87;;
18159;SDS011;9205;52.032;4.314;2023-07-20T00:55:37;0.70;;;0.70;;
18159;SDS011;9205;52.032;4.314;2023-07-20T00:58:06;0.80;;;0.77;;
18159;SDS011;9205;52.032;4.314;2023-07-20T01:00:34;0.80;;;0.63;;
18159;SDS011;9205;52.032;4.314;2023-07-20T01:03:01;0.63;;;0.63;;
18159;SDS011;9205;52.032;4.314;2023-07-20T01:05:33;0.70;;;0.60;;
18159;SDS011;9205;52.032;4.314;2023-07-20T01:08:11;0.70;;;0.70;;
18159;SDS011;9205;52.032;4.314;2023-07-20T01:10:46;2.07;;;0.70;;
18159;SDS011;9205;52.032;4.314;2023-07-20T01:13:23;1.90;;;0.70;;
18159;SDS011;9205;52.032;4.314;2023-07-20T01:15:57;1.40;;;0.70;;
18159;SDS011;9205;52.032;4.314;2023-07-20T01:18:27;1.13;;;0.80;;
18159;SDS011;9205;52.032;4.314;2023-07-20T01:20:57;2.00;;;0.80;;
18159;SDS011;9205;52.032;4.314;2023-07-20T01:23:50;0.57;;;0.57;;
18159;SDS011;9205;52.032;4.314;2023-07-20T01:26:46;0.70;;;0.67;;
18159;SDS011;9205;52.032;4.314;2023-07-20T01:29:51;0.90;;;0.80;;
18159;SDS011;9205;52.032;4.314;2023-07-20T01:32:36;1.63;;;0.60;;
18159;SDS011;9205;52.032;4.314;2023-07-20T01:35:06;1.10;;;0.87;;
18159;SDS011;9205;52.032;4.314;2023-07-20T01:37:39;1.63;;;0.70;;
18159;SDS011;9205;52.032;4.314;2023-07-20T01:40:10;1.03;;;0.60;;
18159;SDS011;9205;52.032;4.314;2023-07-20T01:42:43;0.60;;;0.60;;
18159;SDS011;9205;52.032;4.314;2023-07-20T01:45:11;0.67;;;0.67;;
18159;SDS011;9205;52.032;4.314;2023-07-20T01:47:40;2.67;;;0.80;;
18159;SDS011;9205;52.032;4.314;2023-07-20T01:50:08;1.53;;;0.80;;
18159;SDS011;9205;52.032;4.314;2023-07-20T01:52:35;0.60;;;0.60;;
18159;SDS011;9205;52.032;4.314;2023-07-20T01:55:03;0.70;;;0.70;;
18159;SDS011;9205;52.032;4.314;2023-07-20T01:57:31;0.60;;;0.60;;
18159;SDS011;9205;52.032;4.314;2023-07-20T01:59:58;0.70;;;0.70;;
18159;SDS011;9205;52.032;4.314;2023-07-20T02:02:26;0.80;;;0.70;;
18159;SDS011;9205;52.032;4.314;2023-07-20T02:04:55;0.97;;;0.70;;
18159;SDS011;9205;52.032;4.314;2023-07-20T02:07:23;0.90;;;0.70;;
18159;SDS011;9205;52.032;4.314;2023-07-20T02:09:50;0.60;;;0.60;;
18159;SDS011;9205;52.032;4.314;2023-07-20T02:12:18;3.70;;;0.60;;
18159;SDS011;9205;52.032;4.314;2023-07-20T02:14:46;1.07;;;0.97;;
18159;SDS011;9205;52.032;4.314;2023-07-20T02:17:16;4.00;;;0.80;;
18159;SDS011;9205;52.032;4.314;2023-07-20T02:19:43;1.97;;;0.87;;
18159;SDS011;9205;52.032;4.314;2023-07-20T02:22:12;1.47;;;0.70;;
18159;SDS011;9205;52.032;4.314;2023-07-20T02:24:39;1.10;;;0.70;;
18159;SDS011;9205;52.032;4.314;2023-07-20T02:27:06;1.07;;;0.80;;
18159;SDS011;9205;52.032;4.314;2023-07-20T02:29:33;1.03;;;0.70;;
18159;SDS011;9205;52.032;4.314;2023-07-20T02:32:01;0.60;;;0.60;;
18159;SDS011;9205;52.032;4.314;2023-07-20T02:34:28;0.93;;;0.90;;
18159;SDS011;9205;52.032;4.314;2023-07-20T02:36:55;1.23;;;0.80;;
18159;SDS011;9205;52.032;4.314;2023-07-20T02:39:25;0.83;;;0.80;;
18159;SDS011;9205;52.032;4.314;2023-07-20T02:41:53;0.80;;;0.80;;
18159;SDS011;9205;52.032;4.314;2023-07-20T02:44:21;1.77;;;1.23;;
18159;SDS011;9205;52.032;4.314;2023-07-20T02:46:48;0.83;;;0.70;;
18159;SDS011;9205;52.032;4.314;2023-07-20T02:49:15;2.87;;;0.70;;
18159;SDS011;9205;52.032;4.314;2023-07-20T02:51:42;0.90;;;0.67;;
18159;SDS011;9205;52.032;4.314;2023-07-20T02:54:10;1.30;;;0.93;;
18159;SDS011;9205;52.032;4.314;2023-07-20T02:56:39;0.67;;;0.67;;
18159;SDS011;9205;52.032;4.314;2023-07-20T02:59:06;0.70;;;0.70;;
18159;SDS011;9205;52.032;4.314;2023-07-20T03:01:33;1.00;;;0.90;;
18159;SDS011;9205;52.032;4.314;2023-07-20T03:04:00;0.80;;;0.80;;
18159;SDS011;9205;52.032;4.314;2023-07-20T03:06:28;1.20;;;0.90;;
18159;SDS011;9205;52.032;4.314;2023-07-20T03:08:55;0.77;;;0.73;;
18159;SDS011;9205;52.032;4.314;2023-07-20T03:11:23;1.10;;;0.90;;
18159;SDS011;9205;52.032;4.314;2023-07-20T03:13:51;0.87;;;0.87;;
18159;SDS011;9205;52.032;4.314;2023-07-20T03:16:20;1.17;;;1.07;;
18159;SDS011;9205;52.032;4.314;2023-07-20T03:18:49;1.40;;;0.90;;
18159;SDS011;9205;52.032;4.314;2023-07-20T03:21:16;1.07;;;0.90;;
18159;SDS011;9205;52.032;4.314;2023-07-20T03:23:43;1.03;;;0.80;;
18159;SDS011;9205;52.032;4.314;2023-07-20T03:26:11;0.80;;;0.80;;
18159;SDS011;9205;52.032;4.314;2023-07-20T03:28:38;0.93;;;0.80;;
18159;SDS011;9205;52.032;4.314;2023-07-20T03:31:10;1.17;;;0.90;;
18159;SDS011;9205;52.032;4.314;2023-07-20T03:33:39;1.47;;;1.20;;
18159;SDS011;9205;52.032;4.314;2023-07-20T03:36:07;1.20;;;1.10;;
18159;SDS011;9205;52.032;4.314;2023-07-20T03:38:35;2.00;;;1.40;;
18159;SDS011;9205;52.032;4.314;2023-07-20T03:41:02;1.80;;;1.33;;
18159;SDS011;9205;52.032;4.314;2023-07-20T03:43:30;1.23;;;1.13;;
18159;SDS011;9205;52.032;4.314;2023-07-20T03:45:57;1.27;;;1.17;;
18159;SDS011;9205;52.032;4.314;2023-07-20T03:48:25;1.27;;;1.17;;
18159;SDS011;9205;52.032;4.314;2023-07-20T03:50:53;2.57;;;1.30;;
18159;SDS011;9205;52.032;4.314;2023-07-20T03:53:23;1.53;;;1.13;;
18159;SDS011;9205;52.032;4.314;2023-07-20T03:55:51;1.07;;;0.97;;
18159;SDS011;9205;52.032;4.314;2023-07-20T03:58:20;1.20;;;1.10;;
18159;SDS011;9205;52.032;4.314;2023-07-20T04:00:48;1.57;;;1.20;;
18159;SDS011;9205;52.032;4.314;2023-07-20T04:03:16;2.10;;;1.33;;
18159;SDS011;9205;52.032;4.314;2023-07-20T04:05:45;3.03;;;1.30;;
18159;SDS011;9205;52.032;4.314;2023-07-20T04:08:13;1.53;;;1.20;;
18159;SDS011;9205;52.032;4.314;2023-07-20T04:10:43;2.33;;;1.30;;
18159;SDS011;9205;52.032;4.314;2023-07-20T04:13:11;2.30;;;1.30;;
18159;SDS011;9205;52.032;4.314;2023-07-20T04:15:38;2.57;;;1.33;;
18159;SDS011;9205;52.032;4.314;2023-07-20T04:18:05;1.60;;;1.33;;
18159;SDS011;9205;52.032;4.314;2023-07-20T04:20:33;1.50;;;1.37;;
18159;SDS011;9205;52.032;4.314;2023-07-20T04:23:01;1.50;;;1.30;;
18159;SDS011;9205;52.032;4.314;2023-07-20T04:25:29;2.20;;;1.40;;
18159;SDS011;9205;52.032;4.314;2023-07-20T04:28:04;1.80;;;1.60;;
18159;SDS011;9205;52.032;4.314;2023-07-20T04:30:36;1.60;;;1.47;;
18159;SDS011;9205;52.032;4.314;2023-07-20T04:33:05;2.33;;;1.90;;
18159;SDS011;9205;52.032;4.314;2023-07-20T04:35:45;1.90;;;1.50;;
18159;SDS011;9205;52.032;4.314;2023-07-20T04:38:23;4.23;;;1.70;;
18159;SDS011;9205;52.032;4.314;2023-07-20T04:41:01;2.10;;;1.90;;
18159;SDS011;9205;52.032;4.314;2023-07-20T04:43:32;2.00;;;1.80;;
18159;SDS011;9205;52.032;4.314;2023-07-20T04:45:59;1.70;;;1.60;;
18159;SDS011;9205;52.032;4.314;2023-07-20T04:48:27;2.20;;;2.00;;
18159;SDS011;9205;52.032;4.314;2023-07-20T04:50:55;3.40;;;1.73;;
18159;SDS011;9205;52.032;4.314;2023-07-20T04:53:25;2.27;;;1.80;;
18159;SDS011;9205;52.032;4.314;2023-07-20T04:55:53;3.07;;;1.87;;
18159;SDS011;9205;52.032;4.314;2023-07-20T04:58:22;2.43;;;1.90;;
18159;SDS011;9205;52.032;4.314;2023-07-20T05:00:50;3.13;;;1.80;;
18159;SDS011;9205;52.032;4.314;2023-07-20T05:03:19;1.87;;;1.77;;
18159;SDS011;9205;52.032;4.314;2023-07-20T05:05:48;4.00;;;2.10;;
18159;SDS011;9205;52.032;4.314;2023-07-20T05:08:15;2.40;;;1.60;;
18159;SDS011;9205;52.032;4.314;2023-07-20T05:10:44;6.83;;;2.10;;
18159;SDS011;9205;52.032;4.314;2023-07-20T05:13:12;2.53;;;1.90;;
18159;SDS011;9205;52.032;4.314;2023-07-20T05:15:39;2.93;;;1.80;;
18159;SDS011;9205;52.032;4.314;2023-07-20T05:18:10;2.60;;;1.63;;
18159;SDS011;9205;52.032;4.314;2023-07-20T05:20:38;2.40;;;1.80;;
18159;SDS011;9205;52.032;4.314;2023-07-20T05:23:05;3.57;;;2.10;;
18159;SDS011;9205;52.032;4.314;2023-07-20T05:25:33;4.40;;;2.13;;
18159;SDS011;9205;52.032;4.314;2023-07-20T05:28:01;6.50;;;2.20;;
18159;SDS011;9205;52.032;4.314;2023-07-20T05:30:29;2.87;;;2.00;;
18159;SDS011;9205;52.032;4.314;2023-07-20T05:32:56;2.67;;;1.83;;
18159;SDS011;9205;52.032;4.314;2023-07-20T05:35:23;3.37;;;1.90;;
18159;SDS011;9205;52.032;4.314;2023-07-20T05:37:52;2.33;;;1.60;;
18159;SDS011;9205;52.032;4.314;2023-07-20T05:40:19;2.40;;;1.87;;
18159;SDS011;9205;52.032;4.314;2023-07-20T05:42:47;1.83;;;1.47;;
18159;SDS011;9205;52.032;4.314;2023-07-20T05:45:18;2.40;;;1.57;;
18159;SDS011;9205;52.032;4.314;2023-07-20T05:47:46;1.30;;;1.20;;
18159;SDS011;9205;52.032;4.314;2023-07-20T05:50:13;2.97;;;1.67;;
18159;SDS011;9205;52.032;4.314;2023-07-20T05:52:41;2.40;;;1.60;;
18159;SDS011;9205;52.032;4.314;2023-07-20T05:55:08;5.30;;;1.20;;
18159;SDS011;9205;52.032;4.314;2023-07-20T05:57:35;2.17;;;1.37;;
18159;SDS011;9205;52.032;4.314;2023-07-20T06:00:07;3.43;;;1.40;;
18159;SDS011;9205;52.032;4.314;2023-07-20T06:02:39;2.00;;;1.40;;
18159;SDS011;9205;52.032;4.314;2023-07-20T06:05:06;2.53;;;1.43;;
18159;SDS011;9205;52.032;4.314;2023-07-20T06:07:36;1.37;;;1.17;;
18159;SDS011;9205;52.032;4.314;2023-07-20T06:10:03;1.40;;;1.30;;
18159;SDS011;9205;52.032;4.314;2023-07-20T06:12:32;1.30;;;1.20;;
18159;SDS011;9205;52.032;4.314;2023-07-20T06:15:01;2.50;;;1.43;;
18159;SDS011;9205;52.032;4.314;2023-07-20T06:17:29;1.77;;;1.50;;
18159;SDS011;9205;52.032;4.314;2023-07-20T06:19:59;3.57;;;1.40;;
18159;SDS011;9205;52.032;4.314;2023-07-20T06:22:27;3.43;;;1.43;;
18159;SDS011;9205;52.032;4.314;2023-07-20T06:24:54;2.23;;;1.30;;
18159;SDS011;9205;52.032;4.314;2023-07-20T06:27:21;2.50;;;1.10;;
18159;SDS011;9205;52.032;4.314;2023-07-20T06:29:48;1.43;;;1.23;;
18159;SDS011;9205;52.032;4.314;2023-07-20T06:32:16;1.80;;;1.10;;
18159;SDS011;9205;52.032;4.314;2023-07-20T06:34:43;1.40;;;1.20;;
18159;SDS011;9205;52.032;4.314;2023-07-20T06:37:12;1.10;;;1.00;;
18159;SDS011;9205;52.032;4.314;2023-07-20T06:39:39;2.10;;;1.20;;
18159;SDS011;9205;52.032;4.314;2023-07-20T06:42:06;2.47;;;1.30;;
18159;SDS011;9205;52.032;4.314;2023-07-20T06:44:34;1.30;;;1.20;;
18159;SDS011;9205;52.032;4.314;2023-07-20T06:47:01;1.37;;;1.00;;
18159;SDS011;9205;52.032;4.314;2023-07-20T06:49:29;1.27;;;1.10;;
18159;SDS011;9205;52.032;4.314;2023-07-20T06:51:56;2.10;;;1.10;;
18159;SDS011;9205;52.032;4.314;2023-07-20T06:54:25;1.97;;;1.20;;
18159;SDS011;9205;52.032;4.314;2023-07-20T06:56:52;1.27;;;1.00;;
18159;SDS011;9205;52.032;4.314;2023-07-20T06:59:20;1.10;;;1.00;;
18159;SDS011;9205;52.032;4.314;2023-07-20T07:01:47;2.17;;;1.00;;
18159;SDS011;9205;52.032;4.314;2023-07-20T07:04:15;1.87;;;0.90;;
18159;SDS011;9205;52.032;4.314;2023-07-20T07:06:42;4.37;;;1.27;;
18159;SDS011;9205;52.032;4.314;2023-07-20T07:09:09;1.17;;;1.00;;
18159;SDS011;9205;52.032;4.314;2023-07-20T07:11:38;2.83;;;1.20;;
18159;SDS011;9205;52.032;4.314;2023-07-20T07:14:05;1.93;;;0.97;;
18159;SDS011;9205;52.032;4.314;2023-07-20T07:16:32;0.80;;;0.80;;
18159;SDS011;9205;52.032;4.314;2023-07-20T07:18:59;2.87;;;1.07;;
18159;SDS011;9205;52.032;4.314;2023-07-20T07:21:26;2.03;;;0.80;;
18159;SDS011;9205;52.032;4.314;2023-07-20T07:23:54;1.20;;;1.10;;
18159;SDS011;9205;52.032;4.314;2023-07-20T07:26:24;1.17;;;0.93;;
18159;SDS011;9205;52.032;4.314;2023-07-20T07:28:53;1.27;;;0.90;;
18159;SDS011;9205;52.032;4.314;2023-07-20T07:31:20;0.90;;;0.90;;
18159;SDS011;9205;52.032;4.314;2023-07-20T07:33:48;1.63;;;0.90;;
18159;SDS011;9205;52.032;4.314;2023-07-20T07:36:15;2.17;;;0.80;;
18159;SDS011;9205;52.032;4.314;2023-07-20T07:38:43;0.80;;;0.80;;
18159;SDS011;9205;52.032;4.314;2023-07-20T07:41:10;1.17;;;0.87;;
18159;SDS011;9205;52.032;4.314;2023-07-20T07:43:37;2.03;;;0.93;;
18159;SDS011;9205;52.032;4.314;2023-07-20T07:46:06;1.90;;;0.90;;
18159;SDS011;9205;52.032;4.314;2023-07-20T07:48:33;1.97;;;0.80;;
18159;SDS011;9205;52.032;4.314;2023-07-20T07:51:01;0.80;;;0.80;;
18159;SDS011;9205;52.032;4.314;2023-07-20T07:53:28;1.93;;;1.00;;
18159;SDS011;9205;52.032;4.314;2023-07-20T07:55:55;1.00;;;0.90;;
18159;SDS011;9205;52.032;4.314;2023-07-20T07:58:22;1.07;;;1.00;;
18159;SDS011;9205;52.032;4.314;2023-07-20T08:00:50;0.80;;;0.80;;
18159;SDS011;9205;52.032;4.314;2023-07-20T08:03:18;1.33;;;1.00;;
18159;SDS011;9205;52.032;4.314;2023-07-20T08:05:46;0.70;;;0.70;;
18159;SDS011;9205;52.032;4.314;2023-07-20T08:08:14;0.83;;;0.83;;
18159;SDS011;9205;52.032;4.314;2023-07-20T08:10:41;0.90;;;0.80;;
18159;SDS011;9205;52.032;4.314;2023-07-20T08:13:08;1.00;;;0.87;;
18159;SDS011;9205;52.032;4.314;2023-07-20T08:15:35;0.77;;;0.77;;
18159;SDS011;9205;52.032;4.314;2023-07-20T08:18:03;2.13;;;0.80;;
18159;SDS011;9205;52.032;4.314;2023-07-20T08:20:34;0.87;;;0.80;;
18159;SDS011;9205;52.032;4.314;2023-07-20T08:23:01;1.30;;;0.80;;
18159;SDS011;9205;52.032;4.314;2023-07-20T08:25:28;0.93;;;0.83;;
18159;SDS011;9205;52.032;4.314;2023-07-20T08:27:55;1.00;;;0.90;;
18159;SDS011;9205;52.032;4.314;2023-07-20T08:30:22;1.70;;;1.10;;
18159;SDS011;9205;52.032;4.314;2023-07-20T08:32:50;0.80;;;0.80;;
18159;SDS011;9205;52.032;4.314;2023-07-20T08:35:17;0.87;;;0.80;;
18159;SDS011;9205;52.032;4.314;2023-07-20T08:37:46;1.10;;;0.80;;
18159;SDS011;9205;52.032;4.314;2023-07-20T08:40:13;1.03;;;0.80;;
18159;SDS011;9205;52.032;4.314;2023-07-20T08:42:41;0.70;;;0.70;;
18159;SDS011;9205;52.032;4.314;2023-07-20T08:45:09;0.80;;;0.80;;
18159;SDS011;9205;52.032;4.314;2023-07-20T08:47:42;2.07;;;0.90;;
18159;SDS011;9205;52.032;4.314;2023-07-20T08:50:13;0.90;;;0.70;;
18159;SDS011;9205;52.032;4.314;2023-07-20T08:52:43;2.53;;;1.00;;
18159;SDS011;9205;52.032;4.314;2023-07-20T08:55:11;0.80;;;0.80;;
18159;SDS011;9205;52.032;4.314;2023-07-20T08:57:39;0.70;;;0.70;;
18159;SDS011;9205;52.032;4.314;2023-07-20T09:00:12;2.23;;;0.80;;
18159;SDS011;9205;52.032;4.314;2023-07-20T09:02:42;1.23;;;0.77;;
18159;SDS011;9205;52.032;4.314;2023-07-20T09:05:12;1.40;;;0.80;;
18159;SDS011;9205;52.032;4.314;2023-07-20T09:07:39;0.90;;;0.90;;
18159;SDS011;9205;52.032;4.314;2023-07-20T09:10:07;1.63;;;1.03;;
18159;SDS011;9205;52.032;4.314;2023-07-20T09:12:37;0.80;;;0.80;;
18159;SDS011;9205;52.032;4.314;2023-07-20T09:15:06;1.33;;;0.83;;
18159;SDS011;9205;52.032;4.314;2023-07-20T09:17:34;0.60;;;0.60;;
18159;SDS011;9205;52.032;4.314;2023-07-20T09:20:03;0.90;;;0.80;;
18159;SDS011;9205;52.032;4.314;2023-07-20T09:22:36;0.97;;;0.80;;
18159;SDS011;9205;52.032;4.314;2023-07-20T09:25:06;0.90;;;0.80;;
18159;SDS011;9205;52.032;4.314;2023-07-20T09:27:38;1.80;;;0.80;;
18159;SDS011;9205;52.032;4.314;2023-07-20T09:30:07;1.07;;;0.80;;
18159;SDS011;9205;52.032;4.314;2023-07-20T09:32:38;1.87;;;1.00;;
18159;SDS011;9205;52.032;4.314;2023-07-20T09:35:12;0.70;;;0.70;;
18159;SDS011;9205;52.032;4.314;2023-07-20T09:37:45;1.53;;;1.00;;
18159;SDS011;9205;52.032;4.314;2023-07-20T09:40:17;0.63;;;0.63;;
18159;SDS011;9205;52.032;4.314;2023-07-20T09:42:48;1.47;;;0.70;;
18159;SDS011;9205;52.032;4.314;2023-07-20T09:45:27;5.77;;;0.90;;
18159;SDS011;9205;52.032;4.314;2023-07-20T09:48:02;0.97;;;0.80;;
18159;SDS011;9205;52.032;4.314;2023-07-20T09:50:31;1.83;;;0.90;;
18159;SDS011;9205;52.032;4.314;2023-07-20T09:52:58;1.30;;;0.80;;
18159;SDS011;9205;52.032;4.314;2023-07-20T09:55:28;1.00;;;0.80;;
18159;SDS011;9205;52.032;4.314;2023-07-20T09:57:57;0.80;;;0.80;;
18159;SDS011;9205;52.032;4.314;2023-07-20T10:00:26;0.90;;;0.70;;
18159;SDS011;9205;52.032;4.314;2023-07-20T10:02:54;0.70;;;0.70;;
18159;SDS011;9205;52.032;4.314;2023-07-20T10:05:24;0.70;;;0.70;;
18159;SDS011;9205;52.032;4.314;2023-07-20T10:08:00;1.03;;;0.90;;
18159;SDS011;9205;52.032;4.314;2023-07-20T10:10:33;1.00;;;1.00;;
18159;SDS011;9205;52.032;4.314;2023-07-20T10:13:03;0.70;;;0.70;;
18159;SDS011;9205;52.032;4.314;2023-07-20T10:15:36;1.53;;;0.87;;
18159;SDS011;9205;52.032;4.314;2023-07-20T10:18:09;0.70;;;0.70;;
18159;SDS011;9205;52.032;4.314;2023-07-20T10:20:45;1.10;;;0.83;;
18159;SDS011;9205;52.032;4.314;2023-07-20T10:23:14;2.10;;;0.63;;
18159;SDS011;9205;52.032;4.314;2023-07-20T10:25:41;1.00;;;0.83;;
18159;SDS011;9205;52.032;4.314;2023-07-20T10:28:11;2.00;;;0.70;;
18159;SDS011;9205;52.032;4.314;2023-07-20T10:30:39;0.60;;;0.60;;
18159;SDS011;9205;52.032;4.314;2023-07-20T10:33:08;0.60;;;0.60;;
18159;SDS011;9205;52.032;4.314;2023-07-20T10:35:52;0.70;;;0.70;;
18159;SDS011;9205;52.032;4.314;2023-07-20T10:38:32;0.80;;;0.70;;
18159;SDS011;9205;52.032;4.314;2023-07-20T10:41:15;0.70;;;0.70;;
18159;SDS011;9205;52.032;4.314;2023-07-20T10:43:46;0.70;;;0.70;;
18159;SDS011;9205;52.032;4.314;2023-07-20T10:46:14;0.80;;;0.70;;
18159;SDS011;9205;52.032;4.314;2023-07-20T10:49:00;0.60;;;0.60;;
18159;SDS011;9205;52.032;4.314;2023-07-20T10:51:29;1.00;;;0.60;;
18159;SDS011;9205;52.032;4.314;2023-07-20T10:54:07;0.60;;;0.60;;
18159;SDS011;9205;52.032;4.314;2023-07-20T10:56:35;1.07;;;0.73;;
18159;SDS011;9205;52.032;4.314;2023-07-20T10:59:16;0.70;;;0.60;;
18159;SDS011;9205;52.032;4.314;2023-07-20T11:01:46;2.03;;;0.90;;
18159;SDS011;9205;52.032;4.314;2023-07-20T11:04:15;1.63;;;0.83;;
18159;SDS011;9205;52.032;4.314;2023-07-20T11:06:43;1.27;;;0.80;;
18159;SDS011;9205;52.032;4.314;2023-07-20T11:09:11;0.60;;;0.60;;
18159;SDS011;9205;52.032;4.314;2023-07-20T11:11:41;0.93;;;0.70;;
18159;SDS011;9205;52.032;4.314;2023-07-20T11:14:19;1.87;;;0.70;;
18159;SDS011;9205;52.032;4.314;2023-07-20T11:16:49;2.40;;;0.93;;
18159;SDS011;9205;52.032;4.314;2023-07-20T11:19:18;0.67;;;0.67;;
18159;SDS011;9205;52.032;4.314;2023-07-20T11:21:50;0.70;;;0.70;;
18159;SDS011;9205;52.032;4.314;2023-07-20T11:24:20;1.40;;;0.80;;
18159;SDS011;9205;52.032;4.314;2023-07-20T11:26:48;0.70;;;0.70;;
18159;SDS011;9205;52.032;4.314;2023-07-20T11:29:19;1.20;;;0.70;;
18159;SDS011;9205;52.032;4.314;2023-07-20T11:31:50;2.50;;;0.80;;
18159;SDS011;9205;52.032;4.314;2023-07-20T11:34:18;0.77;;;0.70;;
18159;SDS011;9205;52.032;4.314;2023-07-20T11:36:47;0.50;;;0.50;;
18159;SDS011;9205;52.032;4.314;2023-07-20T11:39:17;2.10;;;0.90;;
18159;SDS011;9205;52.032;4.314;2023-07-20T11:41:46;0.60;;;0.60;;
18159;SDS011;9205;52.032;4.314;2023-07-20T11:44:15;0.83;;;0.80;;
18159;SDS011;9205;52.032;4.314;2023-07-20T11:46:45;2.23;;;0.63;;
18159;SDS011;9205;52.032;4.314;2023-07-20T11:49:13;0.87;;;0.50;;
18159;SDS011;9205;52.032;4.314;2023-07-20T11:51:40;0.97;;;0.60;;
18159;SDS011;9205;52.032;4.314;2023-07-20T11:54:08;0.50;;;0.50;;
18159;SDS011;9205;52.032;4.314;2023-07-20T11:56:41;1.80;;;0.67;;
18159;SDS011;9205;52.032;4.314;2023-07-20T11:59:09;5.60;;;1.00;;
18159;SDS011;9205;52.032;4.314;2023-07-20T12:01:36;0.50;;;0.50;;
18159;SDS011;9205;52.032;4.314;2023-07-20T12:04:05;1.10;;;0.60;;
18159;SDS011;9205;52.032;4.314;2023-07-20T12:06:32;0.60;;;0.53;;
18159;SDS011;9205;52.032;4.314;2023-07-20T12:09:00;0.77;;;0.60;;
18159;SDS011;9205;52.032;4.314;2023-07-20T12:11:34;0.50;;;0.50;;
18159;SDS011;9205;52.032;4.314;2023-07-20T12:14:03;0.50;;;0.50;;
18159;SDS011;9205;52.032;4.314;2023-07-20T12:16:32;1.10;;;0.60;;
18159;SDS011;9205;52.032;4.314;2023-07-20T12:19:02;3.47;;;0.60;;
18159;SDS011;9205;52.032;4.314;2023-07-20T12:21:34;0.68;;;0.50;;
18159;SDS011;9205;52.032;4.314;2023-07-20T12:24:03;0.70;;;0.60;;
18159;SDS011;9205;52.032;4.314;2023-07-20T12:26:31;1.25;;;0.80;;
18159;SDS011;9205;52.032;4.314;2023-07-20T12:29:00;1.20;;;0.73;;
18159;SDS011;9205;52.032;4.314;2023-07-20T12:31:28;1.08;;;0.80;;
18159;SDS011;9205;52.032;4.314;2023-07-20T12:33:57;0.45;;;0.43;;
18159;SDS011;9205;52.032;4.314;2023-07-20T12:36:26;1.13;;;0.60;;
18159;SDS011;9205;52.032;4.314;2023-07-20T12:38:53;1.45;;;0.60;;
18159;SDS011;9205;52.032;4.314;2023-07-20T12:41:20;0.60;;;0.60;;
18159;SDS011;9205;52.032;4.314;2023-07-20T12:43:47;1.33;;;0.75;;
18159;SDS011;9205;52.032;4.314;2023-07-20T12:46:15;0.63;;;0.60;;
18159;SDS011;9205;52.032;4.314;2023-07-20T12:48:42;0.50;;;0.50;;
18159;SDS011;9205;52.032;4.314;2023-07-20T12:51:09;0.50;;;0.50;;
18159;SDS011;9205;52.032;4.314;2023-07-20T12:53:38;0.73;;;0.57;;
18159;SDS011;9205;52.032;4.314;2023-07-20T12:56:06;0.85;;;0.60;;
18159;SDS011;9205;52.032;4.314;2023-07-20T12:58:33;0.65;;;0.60;;
18159;SDS011;9205;52.032;4.314;2023-07-20T13:01:01;0.50;;;0.50;;
18159;SDS011;9205;52.032;4.314;2023-07-20T13:03:29;1.30;;;0.50;;
18159;SDS011;9205;52.032;4.314;2023-07-20T13:05:56;1.40;;;0.68;;
18159;SDS011;9205;52.032;4.314;2023-07-20T13:08:24;2.60;;;0.60;;
18159;SDS011;9205;52.032;4.314;2023-07-20T13:10:53;0.60;;;0.60;;
18159;SDS011;9205;52.032;4.314;2023-07-20T13:13:21;0.60;;;0.60;;
18159;SDS011;9205;52.032;4.314;2023-07-20T13:15:48;0.60;;;0.60;;
18159;SDS011;9205;52.032;4.314;2023-07-20T13:18:16;0.65;;;0.50;;
18159;SDS011;9205;52.032;4.314;2023-07-20T13:20:43;2.33;;;0.60;;
18159;SDS011;9205;52.032;4.314;2023-07-20T13:23:11;1.55;;;0.60;;
18159;SDS011;9205;52.032;4.314;2023-07-20T13:25:38;1.50;;;0.70;;
18159;SDS011;9205;52.032;4.314;2023-07-20T13:28:07;0.40;;;0.40;;
18159;SDS011;9205;52.032;4.314;2023-07-20T13:30:34;1.20;;;0.70;;
18159;SDS011;9205;52.032;4.314;2023-07-20T13:33:01;1.20;;;0.55;;
18159;SDS011;9205;52.032;4.314;2023-07-20T13:35:29;0.88;;;0.60;;
18159;SDS011;9205;52.032;4.314;2023-07-20T13:37:56;1.67;;;0.55;;
18159;SDS011;9205;52.032;4.314;2023-07-20T13:40:26;0.50;;;0.50;;
18159;SDS011;9205;52.032;4.314;2023-07-20T13:42:54;0.73;;;0.50;;
18159;SDS011;9205;52.032;4.314;2023-07-20T13:45:22;0.65;;;0.60;;
18159;SDS011;9205;52.032;4.314;2023-07-20T13:47:50;0.60;;;0.60;;
18159;SDS011;9205;52.032;4.314;2023-07-20T13:50:17;0.60;;;0.60;;
18159;SDS011;9205;52.032;4.314;2023-07-20T13:52:45;0.47;;;0.47;;
18159;SDS011;9205;52.032;4.314;2023-07-20T13:55:12;0.50;;;0.50;;
18159;SDS011;9205;52.032;4.314;2023-07-20T13:57:41;0.60;;;0.60;;
18159;SDS011;9205;52.032;4.314;2023-07-20T14:00:08;0.70;;;0.50;;
18159;SDS011;9205;52.032;4.314;2023-07-20T14:02:40;0.50;;;0.50;;
18159;SDS011;9205;52.032;4.314;2023-07-20T14:05:08;0.98;;;0.60;;
18159;SDS011;9205;52.032;4.314;2023-07-20T14:07:35;0.60;;;0.60;;
18159;SDS011;9205;52.032;4.314;2023-07-20T14:10:03;0.40;;;0.40;;
18159;SDS011;9205;52.032;4.314;2023-07-20T14:12:31;0.65;;;0.60;;
18159;SDS011;9205;52.032;4.314;2023-07-20T14:14:59;0.73;;;0.60;;
18159;SDS011;9205;52.032;4.314;2023-07-20T14:17:26;0.50;;;0.50;;
18159;SDS011;9205;52.032;4.314;2023-07-20T14:19:55;0.55;;;0.50;;
18159;SDS011;9205;52.032;4.314;2023-07-20T14:22:22;1.05;;;0.63;;
18159;SDS011;9205;52.032;4.314;2023-07-20T14:24:49;0.60;;;0.50;;
18159;SDS011;9205;52.032;4.314;2023-07-20T14:27:17;1.00;;;0.40;;
18159;SDS011;9205;52.032;4.314;2023-07-20T14:29:44;0.85;;;0.70;;
18159;SDS011;9205;52.032;4.314;2023-07-20T14:32:11;0.93;;;0.60;;
18159;SDS011;9205;52.032;4.314;2023-07-20T14:34:39;0.50;;;0.50;;
18159;SDS011;9205;52.032;4.314;2023-07-20T14:37:08;0.52;;;0.50;;
18159;SDS011;9205;52.032;4.314;2023-07-20T14:39:35;1.67;;;0.80;;
18159;SDS011;9205;52.032;4.314;2023-07-20T14:42:03;0.73;;;0.50;;
18159;SDS011;9205;52.032;4.314;2023-07-20T14:44:33;1.05;;;0.50;;
18159;SDS011;9205;52.032;4.314;2023-07-20T14:47:00;0.57;;;0.57;;
18159;SDS011;9205;52.032;4.314;2023-07-20T14:49:27;1.35;;;0.60;;
18159;SDS011;9205;52.032;4.314;2023-07-20T14:51:54;0.95;;;0.60;;
18159;SDS011;9205;52.032;4.314;2023-07-20T14:54:23;1.00;;;0.70;;
18159;SDS011;9205;52.032;4.314;2023-07-20T14:56:51;0.60;;;0.60;;
18159;SDS011;9205;52.032;4.314;2023-07-20T14:59:18;1.70;;;0.50;;
18159;SDS011;9205;52.032;4.314;2023-07-20T15:01:46;0.80;;;0.60;;
18159;SDS011;9205;52.032;4.314;2023-07-20T15:04:14;0.63;;;0.60;;
18159;SDS011;9205;52.032;4.314;2023-07-20T15:06:41;0.50;;;0.50;;
18159;SDS011;9205;52.032;4.314;2023-07-20T15:09:09;1.73;;;0.67;;
18159;SDS011;9205;52.032;4.314;2023-07-20T15:11:37;0.53;;;0.50;;